Time;durP1;ratioP1;P1;durP2;ratioP2;P2;SDS_P1;SDS_P2;PMS_P1;PMS_P2;Temp;Humidity;BMP_temperature;BMP_pressure;BME280_temperature;BME280_humidity;BME280_pressure;Samples;Min_cycle;Max_cycle;Signal;HPM_P1;HPM_P2
2023/08/23 00:00:57;;;;;;;3.85;2.70;;;;;;;;;;5046868;28;20484;-82
2023/08/23 00:03:22;;;;;;;4.03;2.60;;;19.60;99.90;;;;;;5041977;28;20025;-82
2023/08/23 00:05:48;;;;;;;9.38;3.47;;;;;;;;;;5043237;28;20044;-83
2023/08/23 00:08:14;;;;;;;5.28;3.08;;;;;;;;;;5044199;28;20096;-82
2023/08/23 00:10:40;;;;;;;4.80;3.05;;;;;;;;;;5045266;28;20040;-82
2023/08/23 00:13:06;;;;;;;4.53;3.05;;;19.50;99.90;;;;;;5046431;28;20304;-81
2023/08/23 00:15:32;;;;;;;5.80;3.13;;;;;;;;;;5044783;28;20520;-81
2023/08/23 00:17:57;;;;;;;8.23;2.88;;;19.20;99.90;;;;;;5045935;28;20033;-83
2023/08/23 00:20:23;;;;;;;4.80;3.17;;;19.20;99.90;;;;;;5040833;28;20029;-82
2023/08/23 00:22:49;;;;;;;9.75;3.08;;;;;;;;;;5045596;28;20043;-82
2023/08/23 00:25:15;;;;;;;5.65;3.40;;;;;;;;;;5041767;28;20029;-81
2023/08/23 00:27:40;;;;;;;5.50;2.53;;;;;;;;;;5048675;28;20032;-82
2023/08/23 00:30:07;;;;;;;5.45;3.30;;;;;;;;;;5039813;28;20069;-82
2023/08/23 00:32:33;;;;;;;5.53;3.22;;;;;;;;;;5034390;28;22523;-82
2023/08/23 00:34:59;;;;;;;5.00;2.78;;;;;;;;;;5040659;28;20009;-83
2023/08/23 00:37:24;;;;;;;7.60;3.05;;;;;;;;;;5048427;28;20096;-81
2023/08/23 00:39:50;;;;;;;6.53;3.67;;;;;;;;;;5043224;28;20033;-82
2023/08/23 00:42:16;;;;;;;5.88;3.63;;;;;;;;;;5047660;28;20037;-82
2023/08/23 00:44:42;;;;;;;4.57;2.70;;;;;;;;;;5032302;28;20055;-82
2023/08/23 00:47:08;;;;;;;5.15;3.42;;;;;;;;;;5044856;28;20037;-82
2023/08/23 00:49:34;;;;;;;7.40;3.33;;;;;;;;;;5039808;28;20021;-83
2023/08/23 00:52:04;;;;;;;5.63;3.38;;;19.30;99.90;;;;;;5049617;28;20036;-83
2023/08/23 00:54:31;;;;;;;4.25;2.88;;;19.60;99.90;;;;;;5041408;28;20426;-82
2023/08/23 00:57:00;;;;;;;7.57;3.13;;;18.40;99.90;;;;;;5041099;28;20029;-83
2023/08/23 00:59:26;;;;;;;12.13;3.53;;;;;;;;;;5036844;28;20123;-82
2023/08/23 01:01:53;;;;;;;5.15;3.22;;;;;;;;;;5038865;28;20491;-82
2023/08/23 01:04:19;;;;;;;6.68;3.72;;;;;;;;;;5045172;28;20553;-82
2023/08/23 01:07:21;;;;;;;14.30;4.35;;;19.50;99.90;;;;;;5039875;28;20029;-82
2023/08/23 01:10:09;;;;;;;6.10;3.03;;;19.20;99.90;;;;;;5009190;28;20041;-82
2023/08/23 01:12:55;;;;;;;6.85;3.78;;;;;;;;;;5047102;28;20028;-82
2023/08/23 01:15:22;;;;;;;7.60;3.55;;;;;;;;;;5048636;28;20027;-82
2023/08/23 01:17:48;;;;;;;5.43;2.97;;;19.30;99.90;;;;;;5049684;28;20585;-82
2023/08/23 01:20:16;;;;;;;4.05;2.33;;;18.70;99.90;;;;;;5037956;28;20091;-82
2023/08/23 01:22:50;;;;;;;5.72;3.15;;;18.90;99.90;;;;;;5049841;28;20092;-82
2023/08/23 01:25:17;;;;;;;3.83;2.97;;;;;;;;;;5042941;28;20024;-83
2023/08/23 01:27:42;;;;;;;6.88;3.72;;;;;;;;;;5045863;28;20147;-82
2023/08/23 01:30:09;;;;;;;6.32;3.10;;;;;;;;;;5048962;28;20033;-82
2023/08/23 01:32:40;;;;;;;6.75;3.35;;;19.20;99.90;;;;;;5050448;28;20043;-82
2023/08/23 01:35:06;;;;;;;5.85;3.63;;;;;;;;;;5042291;28;20025;-82
2023/08/23 01:37:33;;;;;;;5.40;3.30;;;18.30;99.90;;;;;;5045423;28;20031;-82
2023/08/23 01:40:02;;;;;;;7.10;3.53;;;18.90;99.90;;;;;;5046329;28;20029;-81
2023/08/23 01:42:28;;;;;;;8.25;2.72;;;;;;;;;;5043262;28;20025;-82
2023/08/23 01:44:54;;;;;;;5.10;2.90;;;;;;;;;;5042731;28;20037;-82
2023/08/23 01:47:20;;;;;;;9.23;2.83;;;;;;;;;;5046879;28;20045;-82
2023/08/23 01:49:46;;;;;;;3.72;2.85;;;;;;;;;;5048294;28;20097;-82
2023/08/23 01:52:12;;;;;;;3.85;2.78;;;;;;;;;;5052127;28;20418;-82
2023/08/23 01:54:37;;;;;;;4.65;3.08;;;;;;;;;;5048079;28;20025;-82
2023/08/23 01:57:03;;;;;;;5.38;3.63;;;18.40;99.90;;;;;;5050508;28;20166;-83
2023/08/23 01:59:29;;;;;;;5.55;3.90;;;18.10;99.90;;;;;;5052639;28;20029;-83
2023/08/23 02:01:55;;;;;;;6.03;3.88;;;;;;;;;;5050958;28;20059;-83
2023/08/23 02:04:21;;;;;;;5.50;3.35;;;;;;;;;;5047777;28;20423;-83
2023/08/23 02:06:47;;;;;;;6.82;3.47;;;;;;;;;;5047900;28;20038;-83
2023/08/23 02:09:13;;;;;;;7.97;3.60;;;;;;;;;;5048590;28;21420;-83
2023/08/23 02:11:39;;;;;;;3.83;2.58;;;;;;;;;;5053974;28;20090;-83
2023/08/23 02:14:04;;;;;;;7.05;3.90;;;;;;;;;;5045794;28;20017;-83
2023/08/23 02:16:30;;;;;;;5.22;2.97;;;;;;;;;;5050906;28;20466;-83
2023/08/23 02:18:56;;;;;;;5.80;3.33;;;;;;;;;;5053424;28;20163;-81
2023/08/23 02:21:23;;;;;;;4.60;3.40;;;18.20;99.90;;;;;;5069841;28;20025;-82
2023/08/23 02:23:49;;;;;;;8.65;3.65;;;;;;;;;;5059687;28;20021;-82
2023/08/23 02:26:15;;;;;;;8.05;3.83;;;18.00;99.90;;;;;;5047754;28;20056;-83
2023/08/23 02:28:40;;;;;;;5.00;3.90;;;;;;;;;;5048346;28;20033;-82
2023/08/23 02:31:07;;;;;;;7.55;3.65;;;;;;;;;;5044424;28;20025;-83
2023/08/23 02:33:33;;;;;;;5.30;3.67;;;;;;;;;;5043307;28;20060;-83
2023/08/23 02:35:59;;;;;;;6.57;3.55;;;;;;;;;;5043437;28;20033;-83
2023/08/23 02:38:25;;;;;;;5.55;3.80;;;;;;;;;;5046049;28;20059;-83
2023/08/23 02:40:51;;;;;;;6.63;3.60;;;;;;;;;;5049367;28;20059;-82
2023/08/23 02:43:17;;;;;;;9.70;3.60;;;;;;;;;;5039290;28;20029;-83
2023/08/23 02:45:43;;;;;;;4.93;3.38;;;;;;;;;;5044218;28;20029;-83
2023/08/23 02:48:09;;;;;;;6.65;3.47;;;17.80;99.90;;;;;;5036456;28;20020;-83
2023/08/23 02:50:36;;;;;;;5.05;3.33;;;;;;;;;;5039125;28;20044;-83
2023/08/23 02:53:01;;;;;;;8.30;4.75;;;17.60;99.90;;;;;;5038199;28;21608;-83
2023/08/23 02:55:27;;;;;;;8.23;4.57;;;17.70;99.90;;;;;;5050515;28;20025;-83
2023/08/23 02:57:53;;;;;;;5.38;3.38;;;;;;;;;;5035460;28;20021;-83
2023/08/23 03:00:19;;;;;;;6.18;3.30;;;;;;;;;;5039241;28;20091;-83
2023/08/23 03:02:45;;;;;;;4.95;3.35;;;;;;;;;;5036548;28;20032;-83
2023/08/23 03:05:11;;;;;;;6.07;3.40;;;;;;;;;;5038064;28;20032;-83
2023/08/23 03:07:37;;;;;;;9.40;3.88;;;;;;;;;;5045426;28;20072;-82
2023/08/23 03:10:03;;;;;;;6.53;4.20;;;;;;;;;;5048036;28;20122;-83
2023/08/23 03:12:29;;;;;;;8.98;3.90;;;;;;;;;;5049140;28;20097;-83
2023/08/23 03:14:54;;;;;;;9.90;4.25;;;;;;;;;;5044881;28;20060;-83
2023/08/23 03:17:20;;;;;;;7.25;2.92;;;;;;;;;;5049584;28;20044;-83
2023/08/23 03:19:46;;;;;;;8.63;3.55;;;;;;;;;;5044261;28;20158;-83
2023/08/23 03:22:12;;;;;;;7.45;3.35;;;;;;;;;;5045364;28;20021;-82
2023/08/23 03:24:38;;;;;;;6.97;3.72;;;;;;;;;;5040154;28;20037;-83
2023/08/23 03:27:04;;;;;;;7.70;3.15;;;;;;;;;;5041935;28;20045;-83
2023/08/23 03:29:30;;;;;;;8.15;3.60;;;;;;;;;;5043479;28;20419;-83
2023/08/23 03:31:56;;;;;;;7.53;3.50;;;;;;;;;;5043540;28;20025;-83
2023/08/23 03:34:22;;;;;;;8.10;4.10;;;;;;;;;;5041182;28;20113;-83
2023/08/23 03:36:48;;;;;;;5.55;3.40;;;17.70;99.90;;;;;;5044175;28;20503;-83
2023/08/23 03:39:14;;;;;;;9.82;3.70;;;;;;;;;;5035538;28;20059;-81
2023/08/23 03:41:40;;;;;;;4.15;2.70;;;;;;;;;;5045595;28;20025;-81
2023/08/23 03:44:06;;;;;;;5.13;2.97;;;;;;;;;;5040389;28;20029;-80
2023/08/23 03:46:32;;;;;;;6.00;2.65;;;;;;;;;;5040823;28;20091;-82
2023/08/23 03:48:58;;;;;;;4.30;2.42;;;17.10;99.90;;;;;;5037429;28;20388;-81
2023/08/23 03:51:24;;;;;;;4.13;2.72;;;;;;;;;;5037009;28;20889;-82
2023/08/23 03:53:50;;;;;;;3.55;2.33;;;17.20;99.90;;;;;;5036617;28;20032;-81
2023/08/23 03:56:16;;;;;;;6.95;3.17;;;;;;;;;;5040301;28;20109;-81
2023/08/23 03:58:42;;;;;;;7.18;3.80;;;17.40;99.90;;;;;;5035620;28;20056;-82
2023/08/23 04:01:08;;;;;;;12.95;3.95;;;;;;;;;;5040476;28;20030;-81
2023/08/23 04:03:34;;;;;;;7.60;3.80;;;;;;;;;;5031598;28;20045;-81
2023/08/23 04:06:02;;;;;;;4.53;3.20;;;;;;;;;;5043597;28;20114;-81
2023/08/23 04:08:28;;;;;;;5.78;3.35;;;;;;;;;;5044374;28;20498;-80
2023/08/23 04:10:54;;;;;;;4.13;2.78;;;;;;;;;;5042896;28;20110;-82
2023/08/23 04:13:20;;;;;;;5.38;3.42;;;;;;;;;;5041280;28;20032;-82
2023/08/23 04:15:46;;;;;;;5.07;3.28;;;17.10;99.90;;;;;;5042680;28;20033;-82
2023/08/23 04:18:12;;;;;;;11.93;3.78;;;;;;;;;;5036642;28;20075;-82
2023/08/23 04:20:39;;;;;;;5.05;3.22;;;;;;;;;;5041806;28;20379;-82
2023/08/23 04:23:05;;;;;;;6.78;3.70;;;17.20;99.90;;;;;;5032727;28;20040;-84
2023/08/23 04:25:31;;;;;;;5.80;3.70;;;;;;;;;;5042505;28;20443;-81
2023/08/23 04:27:57;;;;;;;7.32;3.35;;;;;;;;;;5037866;28;20033;-81
2023/08/23 04:30:23;;;;;;;4.35;3.22;;;;;;;;;;5036549;28;20182;-81
2023/08/23 04:32:49;;;;;;;6.60;3.15;;;;;;;;;;5042975;28;20151;-81
2023/08/23 04:35:15;;;;;;;5.22;3.45;;;;;;;;;;5041069;28;20079;-82
2023/08/23 04:37:41;;;;;;;4.88;3.28;;;;;;;;;;5036878;28;20029;-82
2023/08/23 04:40:07;;;;;;;6.85;3.97;;;16.80;99.90;;;;;;5037640;28;20029;-81
2023/08/23 04:42:34;;;;;;;5.60;3.35;;;;;;;;;;5038382;28;20503;-83
2023/08/23 04:45:00;;;;;;;11.05;3.92;;;;;;;;;;5035711;28;20044;-83
2023/08/23 04:47:27;;;;;;;7.82;4.03;;;;;;;;;;5041130;28;20408;-82
2023/08/23 04:49:54;;;;;;;6.07;3.38;;;;;;;;;;5034331;28;20021;-82
2023/08/23 04:52:20;;;;;;;5.68;3.53;;;;;;;;;;5045262;28;20056;-82
2023/08/23 04:54:46;;;;;;;9.20;4.00;;;;;;;;;;5041237;28;20075;-82
2023/08/23 04:57:12;;;;;;;7.68;4.60;;;;;;;;;;5043168;28;20694;-83
2023/08/23 04:59:38;;;;;;;6.22;4.13;;;;;;;;;;5039505;28;20124;-83
2023/08/23 05:02:03;;;;;;;13.10;3.95;;;17.20;99.90;;;;;;5037987;28;20048;-82
2023/08/23 05:04:29;;;;;;;5.43;4.07;;;;;;;;;;5032960;28;20116;-83
2023/08/23 05:06:55;;;;;;;9.60;4.20;;;;;;;;;;5041168;28;20025;-83
2023/08/23 05:09:21;;;;;;;5.65;3.72;;;17.20;99.90;;;;;;5042999;28;20512;-82
2023/08/23 05:11:47;;;;;;;4.47;3.22;;;;;;;;;;5039127;28;20609;-83
2023/08/23 05:14:13;;;;;;;5.82;3.60;;;;;;;;;;5030457;28;20053;-83
2023/08/23 05:16:39;;;;;;;6.70;2.67;;;;;;;;;;5047682;28;20487;-83
2023/08/23 05:19:05;;;;;;;5.65;2.63;;;;;;;;;;5044405;28;20028;-83
2023/08/23 05:21:31;;;;;;;5.90;2.75;;;;;;;;;;5043396;28;20028;-83
2023/08/23 05:23:57;;;;;;;6.85;3.00;;;;;;;;;;5037029;28;20025;-83
2023/08/23 05:26:23;;;;;;;4.63;3.05;;;;;;;;;;5043225;28;20137;-82
2023/08/23 05:28:49;;;;;;;5.72;3.10;;;;;;;;;;5043051;28;20098;-84
2023/08/23 05:31:15;;;;;;;3.72;2.85;;;;;;;;;;5040163;28;20033;-82
2023/08/23 05:33:42;;;;;;;5.88;3.08;;;;;;;;;;5042551;28;20116;-82
2023/08/23 05:36:08;;;;;;;3.72;2.88;;;17.30;99.90;;;;;;5043864;28;20040;-81
2023/08/23 05:38:34;;;;;;;4.05;2.83;;;;;;;;;;5044623;28;20029;-81
2023/08/23 05:41:00;;;;;;;5.38;3.20;;;;;;;;;;5040768;28;22891;-81
2023/08/23 05:43:25;;;;;;;4.95;3.10;;;;;;;;;;5040952;28;20759;-81
2023/08/23 05:45:53;;;;;;;10.00;3.78;;;18.20;99.90;;;;;;5036392;28;20067;-82
2023/08/23 05:48:19;;;;;;;6.50;3.80;;;;;;;;;;5049784;28;20067;-82
2023/08/23 05:50:45;;;;;;;6.45;3.45;;;;;;;;;;5043549;28;20479;-82
2023/08/23 05:53:18;;;;;;;6.22;3.17;;;;;;;;;;5047680;28;20036;-82
2023/08/23 05:55:46;;;;;;;7.25;3.45;;;17.70;99.90;;;;;;5046461;28;20032;-81
2023/08/23 05:58:12;;;;;;;7.75;3.55;;;;;;;;;;5047862;28;20040;-82
2023/08/23 06:00:38;;;;;;;8.00;4.20;;;;;;;;;;5044108;28;20021;-82
2023/08/23 06:03:04;;;;;;;9.80;3.80;;;;;;;;;;5043152;28;20029;-83
2023/08/23 06:05:30;;;;;;;8.73;3.75;;;;;;;;;;5039329;28;20383;-82
2023/08/23 06:07:55;;;;;;;5.60;3.67;;;;;;;;;;5039548;28;20033;-82
2023/08/23 06:10:21;;;;;;;5.07;3.33;;;;;;;;;;5042552;28;20025;-81
2023/08/23 06:12:47;;;;;;;5.60;3.58;;;;;;;;;;5043586;28;20036;-82
2023/08/23 06:15:13;;;;;;;11.45;4.07;;;;;;;;;;5039980;28;20032;-81
2023/08/23 06:17:39;;;;;;;6.13;3.17;;;;;;;;;;5042193;28;20052;-81
2023/08/23 06:20:06;;;;;;;9.43;3.78;;;;;;;;;;5046476;28;20511;-82
2023/08/23 06:22:32;;;;;;;7.10;3.03;;;;;;;;;;5046840;28;20021;-82
2023/08/23 06:24:58;;;;;;;8.45;4.15;;;19.20;99.90;;;;;;5047036;28;20432;-82
2023/08/23 06:27:24;;;;;;;8.60;4.10;;;;;;;;;;5061681;28;20029;-83
2023/08/23 06:29:50;;;;;;;11.25;3.97;;;;;;;;;;5066368;28;20045;-81
2023/08/23 06:32:15;;;;;;;4.50;3.40;;;;;;;;;;5059976;28;20037;-82
2023/08/23 06:34:41;;;;;;;6.40;3.95;;;;;;;;;;5056904;28;20127;-82
2023/08/23 06:37:07;;;;;;;4.32;2.97;;;;;;;;;;5052878;28;20025;-83
2023/08/23 06:39:33;;;;;;;5.40;3.10;;;;;;;;;;5052738;28;20086;-82
2023/08/23 06:41:59;;;;;;;8.73;3.75;;;19.50;99.90;;;;;;5040339;28;20235;-82
2023/08/23 06:44:25;;;;;;;6.72;3.45;;;;;;;;;;5035278;28;20158;-82
2023/08/23 06:46:51;;;;;;;4.50;3.30;;;;;;;;;;5035498;28;20034;-82
2023/08/23 06:49:16;;;;;;;5.13;3.13;;;19.80;99.90;;;;;;5040638;28;20826;-81
2023/08/23 06:51:42;;;;;;;5.03;3.10;;;;;;;;;;5041946;28;20520;-81
2023/08/23 06:54:08;;;;;;;5.35;2.90;;;;;;;;;;5039365;28;20045;-82
2023/08/23 06:56:35;;;;;;;6.30;3.70;;;19.90;99.90;;;;;;5032562;28;20033;-82
2023/08/23 06:59:01;;;;;;;8.70;3.10;;;;;;;;;;5029125;28;20040;-83
2023/08/23 07:01:26;;;;;;;8.25;3.42;;;20.10;99.90;;;;;;5035198;28;20024;-82
2023/08/23 07:03:52;;;;;;;4.22;3.13;;;;;;;;;;5039108;28;20017;-83
2023/08/23 07:06:19;;;;;;;5.90;3.08;;;;;;;;;;5051675;28;20029;-85
2023/08/23 07:08:45;;;;;;;8.00;3.88;;;;;;;;;;5045433;28;20035;-86
2023/08/23 07:11:11;;;;;;;6.35;2.88;;;;;;;;;;5047391;28;20024;-84
2023/08/23 07:13:40;;;;;;;5.47;2.55;;;;;;;;;;5042560;28;20053;-84
2023/08/23 07:16:06;;;;;;;9.55;3.70;;;;;;;;;;5042487;28;20033;-85
2023/08/23 07:18:33;;;;;;;4.25;2.72;;;;;;;;;;5046338;28;20036;-83
2023/08/23 07:20:59;;;;;;;5.15;2.55;;;;;;;;;;5041122;28;20487;-85
2023/08/23 07:23:25;;;;;;;4.57;2.60;;;;;;;;;;5042250;28;20039;-85
2023/08/23 07:25:51;;;;;;;5.35;3.40;;;;;;;;;;5042475;28;20043;-84
2023/08/23 07:28:17;;;;;;;4.88;2.28;;;;;;;;;;5037911;28;21312;-85
2023/08/23 07:30:46;;;;;;;7.13;2.42;;;22.20;99.90;;;;;;5043101;28;20036;-83
2023/08/23 07:33:12;;;;;;;4.43;2.70;;;;;;;;;;5034902;28;20539;-84
2023/08/23 07:35:38;;;;;;;7.10;2.70;;;;;;;;;;5044827;28;20122;-86
2023/08/23 07:38:04;;;;;;;4.10;2.38;;;;;;;;;;5049259;28;20235;-85
2023/08/23 07:40:30;;;;;;;5.55;2.60;;;;;;;;;;5043766;28;20622;-88
2023/08/23 07:42:56;;;;;;;8.02;2.95;;;;;;;;;;5044309;28;20029;-85
2023/08/23 07:45:22;;;;;;;6.68;3.08;;;;;;;;;;5051438;28;20090;-85
2023/08/23 07:47:48;;;;;;;6.30;2.78;;;;;;;;;;5050388;28;20084;-84
2023/08/23 07:50:14;;;;;;;4.53;2.45;;;;;;;;;;5049530;28;20081;-84
2023/08/23 07:52:40;;;;;;;4.38;2.50;;;;;;;;;;5050702;28;20538;-84
2023/08/23 07:55:07;;;;;;;8.45;3.25;;;;;;;;;;5047036;28;20025;-86
2023/08/23 07:57:33;;;;;;;4.20;2.03;;;;;;;;;;5044301;28;20029;-84
2023/08/23 07:59:59;;;;;;;5.28;2.75;;;;;;;;;;5048117;28;20079;-84
2023/08/23 08:02:25;;;;;;;8.02;2.20;;;;;;;;;;5044474;28;20387;-86
2023/08/23 08:04:51;;;;;;;5.88;2.45;;;;;;;;;;5047864;28;20093;-84
2023/08/23 08:07:17;;;;;;;3.35;2.25;;;;;;;;;;5048589;28;20056;-85
2023/08/23 08:09:43;;;;;;;4.15;1.90;;;;;;;;;;5054564;28;20052;-85
2023/08/23 08:12:09;;;;;;;5.85;2.22;;;;;;;;;;5049041;28;20021;-84
2023/08/23 08:14:35;;;;;;;6.50;2.22;;;;;;;;;;5048191;28;20028;-85
2023/08/23 08:17:01;;;;;;;4.90;2.15;;;;;;;;;;5052463;28;20037;-84
2023/08/23 08:19:27;;;;;;;5.90;2.22;;;;;;;;;;5049380;28;20387;-82
2023/08/23 08:21:55;;;;;;;3.63;1.92;;;24.20;99.90;;;;;;5054738;28;20404;-83
2023/08/23 08:24:21;;;;;;;6.93;1.70;;;;;;;;;;5049480;28;20052;-84
2023/08/23 08:26:47;;;;;;;4.90;1.88;;;;;;;;;;5057058;28;20034;-84
2023/08/23 08:29:13;;;;;;;3.95;1.92;;;;;;;;;;5057620;28;20364;-86
2023/08/23 08:31:40;;;;;;;2.78;1.67;;;;;;;;;;5046875;28;20032;-85
2023/08/23 08:34:06;;;;;;;2.22;1.48;;;;;;;;;;5050602;28;20051;-87
2023/08/23 08:36:32;;;;;;;2.95;1.40;;;;;;;;;;5037788;28;20032;-84
2023/08/23 08:38:58;;;;;;;7.32;1.80;;;;;;;;;;5052371;28;20041;-85
2023/08/23 08:41:24;;;;;;;4.38;1.33;;;;;;;;;;5058254;28;20040;-86
2023/08/23 08:43:50;;;;;;;2.38;0.82;;;26.30;99.90;;;;;;5059006;28;20048;-84
2023/08/23 08:46:16;;;;;;;1.08;0.65;;;;;;;;;;5050072;28;20065;-85
2023/08/23 08:48:42;;;;;;;1.27;0.68;;;;;;;;;;5063079;28;20036;-85
2023/08/23 08:51:11;;;;;;;1.67;0.77;;;29.20;95.50;;;;;;5057054;28;20017;-84
2023/08/23 08:53:38;;;;;;;1.90;0.82;;;;;;;;;;5048982;28;20033;-85
2023/08/23 08:56:04;;;;;;;2.15;0.80;;;;;;;;;;5054887;28;20506;-84
2023/08/23 08:58:31;;;;;;;2.00;1.13;;;33.60;85.00;;;;;;5048244;28;20025;-83
2023/08/23 09:00:59;;;;;;;6.72;1.00;;;34.60;81.00;;;;;;5043513;28;20544;-82
2023/08/23 09:03:26;;;;;;;2.78;1.10;;;;;;;;;;5040431;28;20036;-82
2023/08/23 09:05:52;;;;;;;2.22;1.15;;;36.40;72.30;;;;;;5047165;28;20055;-83
2023/08/23 09:08:18;;;;;;;2.92;0.80;;;;;;;;;;5046561;28;20025;-84
2023/08/23 09:10:44;;;;;;;5.10;1.20;;;;;;;;;;5046197;28;20033;-83
2023/08/23 09:13:10;;;;;;;4.18;1.23;;;;;;;;;;5045092;28;20036;-84
2023/08/23 09:15:36;;;;;;;2.58;1.10;;;;;;;;;;5046778;28;20040;-84
2023/08/23 09:18:02;;;;;;;2.83;1.25;;;;;;;;;;5048451;28;20049;-84
2023/08/23 09:20:28;;;;;;;2.72;0.80;;;;;;;;;;5052308;28;20025;-83
2023/08/23 09:22:55;;;;;;;3.10;1.77;;;35.00;67.80;;;;;;5042607;28;20037;-83
2023/08/23 09:25:22;;;;;;;4.32;1.30;;;33.30;70.30;;;;;;5043899;28;20608;-85
2023/08/23 09:27:48;;;;;;;3.60;1.35;;;;;;;;;;5040824;28;20060;-84
2023/08/23 09:30:14;;;;;;;1.70;1.17;;;;;;;;;;5048805;28;20514;-86
2023/08/23 09:32:41;;;;;;;5.47;1.42;;;30.70;78.60;;;;;;5041650;28;20043;-83
2023/08/23 09:35:14;;;;;;;2.92;1.38;;;30.50;86.20;;;;;;5044685;28;20442;-84
2023/08/23 09:37:48;;;;;;;3.78;1.38;;;30.20;78.50;;;;;;5047380;28;20039;-85
2023/08/23 09:40:23;;;;;;;2.70;1.60;;;29.80;78.10;;;;;;5044565;28;20029;-86
2023/08/23 09:42:50;;;;;;;2.45;1.20;;;30.00;80.60;;;;;;5040349;28;20115;-86
2023/08/23 09:45:23;;;;;;;6.82;1.85;;;28.80;79.90;;;;;;5041160;28;20090;-83
2023/08/23 09:47:53;;;;;;;3.95;1.58;;;29.10;96.10;;;;;;5046567;28;20102;-84
2023/08/23 09:50:20;;;;;;;3.35;1.48;;;28.60;85.40;;;;;;5046528;28;20063;-86
2023/08/23 09:52:51;;;;;;;5.40;2.03;;;28.70;86.90;;;;;;5038518;28;20039;-85
2023/08/23 09:55:17;;;;;;;2.47;1.20;;;29.80;82.50;;;;;;5045088;28;20029;-84
2023/08/23 09:57:43;;;;;;;2.67;1.27;;;;;;;;;;5044850;28;20135;-84
2023/08/23 10:00:10;;;;;;;2.80;1.73;;;28.90;91.30;;;;;;5042196;28;20112;-83
2023/08/23 10:02:36;;;;;;;2.90;1.67;;;29.40;86.20;;;;;;5044347;28;20113;-83
2023/08/23 10:05:06;;;;;;;4.75;1.98;;;29.90;84.50;;;;;;5045852;28;20557;-83
2023/08/23 10:07:35;;;;;;;3.45;1.80;;;;;;;;;;5046800;28;20036;-85
2023/08/23 10:10:03;;;;;;;1.77;1.20;;;;;;;;;;5041249;28;20039;-84
2023/08/23 10:12:30;;;;;;;4.00;1.25;;;29.90;84.80;;;;;;5041081;28;20024;-83
2023/08/23 10:14:59;;;;;;;8.02;1.65;;;29.90;84.10;;;;;;5041110;28;20493;-83
2023/08/23 10:17:25;;;;;;;3.10;1.73;;;29.90;81.30;;;;;;5041382;28;20025;-82
2023/08/23 10:19:52;;;;;;;3.42;1.85;;;;;;;;;;5048929;28;20048;-83
2023/08/23 10:22:18;;;;;;;3.42;1.73;;;;;;;;;;5040256;28;20021;-84
2023/08/23 10:24:48;;;;;;;2.55;1.50;;;29.50;93.20;;;;;;5048116;28;20553;-82
2023/08/23 10:27:14;;;;;;;4.43;2.13;;;;;;;;;;5040674;28;20514;-83
2023/08/23 10:29:40;;;;;;;3.17;1.67;;;;;;;;;;5043376;28;20044;-83
2023/08/23 10:32:08;;;;;;;4.75;1.80;;;29.00;84.60;;;;;;5046133;28;20084;-82
2023/08/23 10:34:38;;;;;;;2.78;1.38;;;29.40;91.90;;;;;;5038724;28;20108;-84
2023/08/23 10:37:18;;;;;;;4.57;1.75;;;29.00;97.00;;;;;;5063213;28;20043;-81
2023/08/23 10:39:49;;;;;;;4.95;1.20;;;29.40;81.20;;;;;;5060489;28;20026;-86
2023/08/23 10:42:16;;;;;;;3.63;1.60;;;29.70;84.90;;;;;;5050369;28;20123;-83
2023/08/23 10:44:58;;;;;;;6.85;1.40;;;29.90;80.70;;;;;;5051938;28;20029;-84
2023/08/23 10:47:24;;;;;;;1.98;1.25;;;;;;;;;;5047403;28;20475;-83
2023/08/23 10:49:51;;;;;;;5.30;1.75;;;;;;;;;;5048495;28;20080;-84
2023/08/23 10:52:17;;;;;;;5.75;1.33;;;29.50;96.40;;;;;;5046692;28;20037;-85
2023/08/23 10:54:43;;;;;;;2.95;1.30;;;;;;;;;;5050557;28;20092;-85
2023/08/23 10:57:09;;;;;;;1.92;1.30;;;29.40;96.70;;;;;;5047524;28;20021;-84
2023/08/23 10:59:35;;;;;;;3.42;1.52;;;;;;;;;;5038901;28;20096;-81
2023/08/23 11:02:01;;;;;;;2.13;1.40;;;;;;;;;;5042846;28;20043;-84
2023/08/23 11:04:27;;;;;;;1.75;1.38;;;;;;;;;;5035926;28;20055;-82
2023/08/23 11:06:53;;;;;;;5.40;1.40;;;;;;;;;;5034385;28;20381;-84
2023/08/23 11:09:19;;;;;;;2.30;1.42;;;;;;;;;;5034949;28;20047;-83
2023/08/23 11:11:45;;;;;;;5.03;2.20;;;;;;;;;;5039116;28;20025;-84
2023/08/23 11:14:11;;;;;;;3.58;1.65;;;;;;;;;;5035645;28;20028;-82
2023/08/23 11:16:38;;;;;;;7.45;1.52;;;;;;;;;;5041739;28;20021;-82
2023/08/23 11:19:05;;;;;;;3.38;1.35;;;;;;;;;;5043639;28;20029;-84
2023/08/23 11:21:31;;;;;;;6.07;1.55;;;28.60;83.80;;;;;;5044126;28;20091;-83
2023/08/23 11:23:57;;;;;;;4.75;1.52;;;;;;;;;;5046660;28;20060;-83
2023/08/23 11:26:23;;;;;;;2.40;1.45;;;;;;;;;;5041048;28;20130;-82
2023/08/23 11:28:51;;;;;;;3.65;1.35;;;32.10;87.10;;;;;;5036550;28;20495;-83
2023/08/23 11:31:17;;;;;;;2.38;1.63;;;;;;;;;;5040448;28;20041;-82
2023/08/23 11:33:43;;;;;;;2.47;1.30;;;;;;;;;;5037082;28;20090;-83
2023/08/23 11:36:09;;;;;;;4.68;1.55;;;;;;;;;;5044382;28;20059;-82
2023/08/23 11:38:35;;;;;;;2.92;1.50;;;;;;;;;;5038545;28;20057;-82
2023/08/23 11:41:01;;;;;;;2.28;1.20;;;;;;;;;;5029111;28;20118;-83
2023/08/23 11:43:28;;;;;;;4.13;1.48;;;;;;;;;;5037951;28;20048;-82
2023/08/23 11:45:54;;;;;;;4.05;1.60;;;;;;;;;;5051615;28;20071;-82
2023/08/23 11:48:22;;;;;;;4.50;1.52;;;29.90;83.30;;;;;;5044864;28;22281;-82
2023/08/23 11:50:48;;;;;;;2.95;1.27;;;;;;;;;;5035191;28;20037;-82
2023/08/23 11:53:14;;;;;;;2.08;1.40;;;;;;;;;;5043581;28;20029;-84
2023/08/23 11:55:43;;;;;;;2.28;1.20;;;;;;;;;;5046627;28;20029;-83
2023/08/23 11:58:12;;;;;;;3.33;0.93;;;;;;;;;;5044020;28;20029;-83
2023/08/23 12:00:38;;;;;;;2.38;1.45;;;;;;;;;;5041385;28;20041;-83
2023/08/23 12:03:04;;;;;;;2.30;1.15;;;;;;;;;;5031890;28;20091;-82
2023/08/23 12:05:30;;;;;;;4.55;1.35;;;;;;;;;;5043157;28;20106;-84
2023/08/23 12:07:56;;;;;;;2.53;1.27;;;;;;;;;;5045537;28;20142;-83
2023/08/23 12:10:22;;;;;;;6.32;1.50;;;;;;;;;;5048682;28;20020;-84
2023/08/23 12:12:48;;;;;;;4.53;1.25;;;;;;;;;;5050117;28;20036;-84
2023/08/23 12:15:14;;;;;;;1.73;1.30;;;;;;;;;;5051823;28;20079;-83
2023/08/23 12:17:40;;;;;;;3.03;1.38;;;;;;;;;;5047585;28;20055;-82
2023/08/23 12:20:11;;;;;;;2.17;1.23;;;;;;;;;;5051946;28;20097;-83
2023/08/23 12:22:37;;;;;;;1.83;1.30;;;;;;;;;;5046352;28;20040;-84
2023/08/23 12:25:04;;;;;;;2.55;1.33;;;;;;;;;;5045008;28;20025;-83
2023/08/23 12:27:30;;;;;;;3.38;0.90;;;;;;;;;;5051133;28;20044;-84
2023/08/23 12:29:56;;;;;;;4.00;1.15;;;;;;;;;;5053898;28;20057;-83
2023/08/23 12:32:22;;;;;;;2.17;1.40;;;;;;;;;;5049626;28;20028;-84
2023/08/23 12:34:48;;;;;;;1.65;1.10;;;;;;;;;;5048811;28;20080;-83
2023/08/23 12:37:14;;;;;;;2.42;1.13;;;;;;;;;;5049193;28;20121;-82
2023/08/23 12:39:40;;;;;;;2.75;1.30;;;;;;;;;;5045577;28;20055;-82
2023/08/23 12:42:06;;;;;;;1.55;1.08;;;;;;;;;;5045824;28;20108;-86
2023/08/23 12:44:33;;;;;;;2.20;0.70;;;;;;;;;;5039998;28;20475;-82
2023/08/23 12:47:00;;;;;;;3.78;1.17;;;;;;;;;;5044968;28;20037;-83
2023/08/23 12:49:26;;;;;;;2.20;1.10;;;;;;;;;;5041781;28;20088;-83
2023/08/23 12:51:52;;;;;;;2.20;1.35;;;;;;;;;;5037224;28;20106;-84
2023/08/23 12:54:18;;;;;;;4.13;1.42;;;;;;;;;;5037208;28;20033;-83
2023/08/23 12:56:44;;;;;;;1.40;0.90;;;;;;;;;;5041214;28;20492;-84
2023/08/23 12:59:10;;;;;;;3.80;1.27;;;;;;;;;;5049160;28;20040;-86
2023/08/23 13:01:36;;;;;;;2.20;1.42;;;;;;;;;;5045623;28;20471;-84
2023/08/23 13:04:02;;;;;;;1.95;0.98;;;;;;;;;;5039812;28;20021;-81
2023/08/23 13:06:28;;;;;;;5.10;1.80;;;;;;;;;;5043355;28;20123;-81
2023/08/23 13:08:54;;;;;;;3.70;1.92;;;;;;;;;;5042508;28;20471;-84
2023/08/23 13:11:20;;;;;;;2.67;0.85;;;;;;;;;;5039263;28;20071;-85
2023/08/23 13:13:50;;;;;;;2.38;1.33;;;29.20;78.90;;;;;;5042440;28;20083;-83
2023/08/23 13:16:16;;;;;;;2.65;1.10;;;;;;;;;;5042304;28;20392;-83
2023/08/23 13:18:42;;;;;;;8.75;1.23;;;;;;;;;;5045949;28;20035;-84
2023/08/23 13:21:08;;;;;;;3.90;1.60;;;;;;;;;;5047494;28;20025;-85
2023/08/23 13:23:34;;;;;;;3.05;1.15;;;;;;;;;;5040367;28;20388;-84
2023/08/23 13:26:00;;;;;;;1.80;1.00;;;;;;;;;;5047794;28;20037;-82
2023/08/23 13:28:26;;;;;;;1.75;0.80;;;;;;;;;;5047308;28;20094;-82
2023/08/23 13:30:52;;;;;;;5.05;1.20;;;;;;;;;;5035732;28;20483;-80
2023/08/23 13:33:18;;;;;;;2.78;1.10;;;;;;;;;;5044988;28;20036;-82
2023/08/23 13:35:44;;;;;;;3.65;1.75;;;;;;;;;;5052604;28;20033;-84
2023/08/23 13:38:10;;;;;;;3.75;1.10;;;;;;;;;;5067195;28;20095;-83
2023/08/23 13:40:36;;;;;;;2.30;1.30;;;30.00;86.60;;;;;;5068679;28;20013;-85
2023/08/23 13:43:01;;;;;;;1.25;0.95;;;;;;;;;;5044811;28;20064;-88
2023/08/23 13:45:27;;;;;;;3.10;1.10;;;;;;;;;;5051393;28;20048;-83
2023/08/23 13:47:53;;;;;;;3.75;1.30;;;;;;;;;;5052620;28;20041;-82
2023/08/23 13:50:19;;;;;;;3.70;1.67;;;29.70;84.10;;;;;;5045113;28;20032;-82
2023/08/23 13:52:45;;;;;;;6.55;1.33;;;;;;;;;;5050262;28;20025;-82
2023/08/23 13:55:11;;;;;;;1.90;1.15;;;;;;;;;;5047690;28;20037;-83
2023/08/23 13:57:37;;;;;;;3.35;1.42;;;;;;;;;;5057700;28;20086;-81
2023/08/23 14:00:04;;;;;;;1.85;1.05;;;29.70;93.40;;;;;;5068131;28;20009;-81
2023/08/23 14:02:30;;;;;;;1.92;1.20;;;;;;;;;;5071450;28;20037;-80
2023/08/23 14:04:56;;;;;;;2.17;1.20;;;;;;;;;;5066765;28;20033;-81
2023/08/23 14:07:22;;;;;;;3.13;1.15;;;;;;;;;;5059695;28;20134;-82
2023/08/23 14:09:48;;;;;;;6.28;1.10;;;29.90;91.40;;;;;;5057002;28;20025;-82